sensor_id;sensor_type;location;lat;lon;timestamp;pressure;altitude;pressure_sealevel;temperature;humidity
20710;BME280;10516;51.518;9.864;2023-07-29T00:01:36;98135.06;;;18.78;87.51
20710;BME280;10516;51.518;9.864;2023-07-29T00:04:02;98131.88;;;18.76;87.33
20710;BME280;10516;51.518;9.864;2023-07-29T00:06:27;98120.56;;;18.65;87.41
20710;BME280;10516;51.518;9.864;2023-07-29T00:08:53;98119.31;;;18.63;87.55
20710;BME280;10516;51.518;9.864;2023-07-29T00:11:18;98124.41;;;18.56;88.14
20710;BME280;10516;51.518;9.864;2023-07-29T00:13:44;98110.41;;;18.45;87.59
20710;BME280;10516;51.518;9.864;2023-07-29T00:16:09;98111.19;;;18.63;87.50
20710;BME280;10516;51.518;9.864;2023-07-29T00:18:34;98115.44;;;18.38;88.03
20710;BME280;10516;51.518;9.864;2023-07-29T00:21:00;98110.22;;;18.59;87.19
20710;BME280;10516;51.518;9.864;2023-07-29T00:23:25;98103.25;;;18.58;87.25
20710;BME280;10516;51.518;9.864;2023-07-29T00:25:50;98112.16;;;18.50;87.45
20710;BME280;10516;51.518;9.864;2023-07-29T00:28:16;98102.44;;;18.57;87.30
20710;BME280;10516;51.518;9.864;2023-07-29T00:30:41;98114.34;;;18.48;87.76
20710;BME280;10516;51.518;9.864;2023-07-29T00:33:07;98101.78;;;18.43;87.86
20710;BME280;10516;51.518;9.864;2023-07-29T00:35:32;98104.31;;;18.40;87.79
20710;BME280;10516;51.518;9.864;2023-07-29T00:37:58;98114.66;;;18.38;87.81
20710;BME280;10516;51.518;9.864;2023-07-29T00:40:23;98106.22;;;18.39;88.03
20710;BME280;10516;51.518;9.864;2023-07-29T00:42:49;98100.69;;;18.44;87.63
20710;BME280;10516;51.518;9.864;2023-07-29T00:45:16;98107.53;;;18.50;87.23
20710;BME280;10516;51.518;9.864;2023-07-29T00:47:42;98103.50;;;18.39;87.64
20710;BME280;10516;51.518;9.864;2023-07-29T00:50:09;98105.47;;;18.47;87.32
20710;BME280;10516;51.518;9.864;2023-07-29T00:52:35;98104.31;;;18.40;87.10
20710;BME280;10516;51.518;9.864;2023-07-29T00:55:01;98100.34;;;18.37;87.44
20710;BME280;10516;51.518;9.864;2023-07-29T00:57:29;98096.34;;;18.26;88.19
20710;BME280;10516;51.518;9.864;2023-07-29T00:59:55;98099.84;;;18.35;87.74
20710;BME280;10516;51.518;9.864;2023-07-29T01:02:21;98086.81;;;18.37;88.03
20710;BME280;10516;51.518;9.864;2023-07-29T01:04:52;98094.31;;;18.40;87.91
20710;BME280;10516;51.518;9.864;2023-07-29T01:07:21;98087.47;;;18.43;88.14
20710;BME280;10516;51.518;9.864;2023-07-29T01:09:58;98081.28;;;18.51;88.07
20710;BME280;10516;51.518;9.864;2023-07-29T01:15:13;98084.63;;;18.48;88.17
20710;BME280;10516;51.518;9.864;2023-07-29T01:18:04;98073.63;;;18.27;88.37
20710;BME280;10516;51.518;9.864;2023-07-29T01:20:33;98076.00;;;18.37;88.45
20710;BME280;10516;51.518;9.864;2023-07-29T01:22:58;98079.03;;;18.27;88.31
20710;BME280;10516;51.518;9.864;2023-07-29T01:25:24;98083.47;;;18.15;88.70
20710;BME280;10516;51.518;9.864;2023-07-29T01:27:50;98074.53;;;17.88;90.17
20710;BME280;10516;51.518;9.864;2023-07-29T01:30:26;98075.97;;;17.94;90.75
20710;BME280;10516;51.518;9.864;2023-07-29T01:33:30;98084.50;;;17.79;91.42
20710;BME280;10516;51.518;9.864;2023-07-29T01:36:03;98068.00;;;17.81;91.83
20710;BME280;10516;51.518;9.864;2023-07-29T01:38:37;98084.44;;;18.10;90.42
20710;BME280;10516;51.518;9.864;2023-07-29T01:41:06;98082.69;;;18.23;89.32
20710;BME280;10516;51.518;9.864;2023-07-29T01:43:32;98080.59;;;18.20;89.57
20710;BME280;10516;51.518;9.864;2023-07-29T01:46:00;98090.78;;;18.31;89.68
20710;BME280;10516;51.518;9.864;2023-07-29T01:48:26;98080.13;;;18.35;89.55
20710;BME280;10516;51.518;9.864;2023-07-29T01:50:52;98096.56;;;18.47;89.26
20710;BME280;10516;51.518;9.864;2023-07-29T01:53:18;98092.41;;;18.41;89.32
20710;BME280;10516;51.518;9.864;2023-07-29T01:55:43;98088.56;;;18.33;89.78
20710;BME280;10516;51.518;9.864;2023-07-29T01:58:10;98077.94;;;18.37;90.15
20710;BME280;10516;51.518;9.864;2023-07-29T02:00:35;98084.78;;;18.34;90.01
20710;BME280;10516;51.518;9.864;2023-07-29T02:03:01;98080.47;;;18.42;89.85
20710;BME280;10516;51.518;9.864;2023-07-29T02:05:26;98072.69;;;18.23;90.12
20710;BME280;10516;51.518;9.864;2023-07-29T02:07:52;98065.38;;;18.41;90.15
20710;BME280;10516;51.518;9.864;2023-07-29T02:10:17;98079.19;;;18.39;89.93
20710;BME280;10516;51.518;9.864;2023-07-29T02:12:43;98072.22;;;18.38;90.17
20710;BME280;10516;51.518;9.864;2023-07-29T02:15:08;98071.13;;;18.48;89.82
20710;BME280;10516;51.518;9.864;2023-07-29T02:17:34;98058.53;;;18.35;89.86
20710;BME280;10516;51.518;9.864;2023-07-29T02:20:00;98079.66;;;18.41;90.18
20710;BME280;10516;51.518;9.864;2023-07-29T02:22:25;98079.38;;;18.34;89.95
20710;BME280;10516;51.518;9.864;2023-07-29T02:24:50;98072.69;;;18.32;90.35
20710;BME280;10516;51.518;9.864;2023-07-29T02:27:16;98070.94;;;18.27;90.36
20710;BME280;10516;51.518;9.864;2023-07-29T02:29:41;98079.38;;;18.34;90.21
20710;BME280;10516;51.518;9.864;2023-07-29T02:32:06;98086.00;;;18.28;90.67
20710;BME280;10516;51.518;9.864;2023-07-29T02:34:32;98076.47;;;18.14;91.52
20710;BME280;10516;51.518;9.864;2023-07-29T02:36:57;98066.94;;;17.99;92.26
20710;BME280;10516;51.518;9.864;2023-07-29T02:39:23;98070.75;;;18.07;92.44
20710;BME280;10516;51.518;9.864;2023-07-29T02:41:48;98063.44;;;17.98;92.72
20710;BME280;10516;51.518;9.864;2023-07-29T02:44:15;98054.06;;;18.05;92.39
20710;BME280;10516;51.518;9.864;2023-07-29T02:46:40;98056.13;;;18.08;92.50
20710;BME280;10516;51.518;9.864;2023-07-29T02:49:06;98052.97;;;18.06;92.73
20710;BME280;10516;51.518;9.864;2023-07-29T02:51:31;98054.25;;;18.08;92.00
20710;BME280;10516;51.518;9.864;2023-07-29T02:53:56;98048.38;;;18.06;92.04
20710;BME280;10516;51.518;9.864;2023-07-29T02:56:22;98047.09;;;18.04;92.47
20710;BME280;10516;51.518;9.864;2023-07-29T02:58:47;98052.31;;;18.09;91.96
20710;BME280;10516;51.518;9.864;2023-07-29T03:01:13;98049.31;;;18.10;91.66
20710;BME280;10516;51.518;9.864;2023-07-29T03:03:39;98050.59;;;18.13;91.70
20710;BME280;10516;51.518;9.864;2023-07-29T03:06:09;98046.44;;;18.07;91.83
20710;BME280;10516;51.518;9.864;2023-07-29T03:08:35;98039.94;;;18.16;91.47
20710;BME280;10516;51.518;9.864;2023-07-29T03:11:13;98038.34;;;18.15;91.70
20710;BME280;10516;51.518;9.864;2023-07-29T03:13:39;98042.50;;;18.13;91.69
20710;BME280;10516;51.518;9.864;2023-07-29T03:16:08;98028.00;;;18.09;91.66
20710;BME280;10516;51.518;9.864;2023-07-29T03:18:34;98033.72;;;18.16;91.33
20710;BME280;10516;51.518;9.864;2023-07-29T03:20:59;98025.97;;;18.14;91.40
20710;BME280;10516;51.518;9.864;2023-07-29T03:23:25;98021.31;;;17.97;92.08
20710;BME280;10516;51.518;9.864;2023-07-29T03:25:51;98023.25;;;17.97;91.83
20710;BME280;10516;51.518;9.864;2023-07-29T03:28:18;98025.00;;;17.93;92.02
20710;BME280;10516;51.518;9.864;2023-07-29T03:30:43;98027.03;;;17.96;92.05
20710;BME280;10516;51.518;9.864;2023-07-29T03:33:09;98025.00;;;18.10;90.92
20710;BME280;10516;51.518;9.864;2023-07-29T03:35:34;98011.31;;;18.07;90.99
20710;BME280;10516;51.518;9.864;2023-07-29T03:37:59;98015.75;;;17.77;91.40
20710;BME280;10516;51.518;9.864;2023-07-29T03:40:25;98008.31;;;18.00;91.18
20710;BME280;10516;51.518;9.864;2023-07-29T03:42:50;98011.66;;;18.14;90.49
20710;BME280;10516;51.518;9.864;2023-07-29T03:45:15;98005.44;;;17.96;91.07
20710;BME280;10516;51.518;9.864;2023-07-29T03:47:41;98008.47;;;18.03;90.81
20710;BME280;10516;51.518;9.864;2023-07-29T03:50:06;97998.16;;;18.14;90.91
20710;BME280;10516;51.518;9.864;2023-07-29T03:52:32;98004.34;;;18.14;91.23
20710;BME280;10516;51.518;9.864;2023-07-29T03:54:57;97995.13;;;18.15;90.47
20710;BME280;10516;51.518;9.864;2023-07-29T03:57:22;98000.84;;;18.14;90.99
20710;BME280;10516;51.518;9.864;2023-07-29T03:59:48;98001.78;;;18.18;91.31
20710;BME280;10516;51.518;9.864;2023-07-29T04:02:13;97994.81;;;18.08;90.91
20710;BME280;10516;51.518;9.864;2023-07-29T04:04:39;98001.97;;;18.13;91.61
20710;BME280;10516;51.518;9.864;2023-07-29T04:07:06;97995.78;;;18.12;91.49
20710;BME280;10516;51.518;9.864;2023-07-29T04:09:32;97999.75;;;18.15;91.71
20710;BME280;10516;51.518;9.864;2023-07-29T04:11:58;98000.03;;;18.13;91.94
20710;BME280;10516;51.518;9.864;2023-07-29T04:14:23;98007.06;;;18.14;91.66
20710;BME280;10516;51.518;9.864;2023-07-29T04:16:49;98017.84;;;18.14;92.23
20710;BME280;10516;51.518;9.864;2023-07-29T04:19:14;98008.16;;;18.05;92.71
20710;BME280;10516;51.518;9.864;2023-07-29T04:21:40;98012.94;;;18.16;92.32
20710;BME280;10516;51.518;9.864;2023-07-29T04:24:05;98010.84;;;18.13;92.76
20710;BME280;10516;51.518;9.864;2023-07-29T04:26:30;98012.78;;;18.13;92.71
20710;BME280;10516;51.518;9.864;2023-07-29T04:28:56;98010.06;;;18.13;92.81
20710;BME280;10516;51.518;9.864;2023-07-29T04:31:23;97987.34;;;17.96;94.57
20710;BME280;10516;51.518;9.864;2023-07-29T04:33:48;97985.59;;;18.09;93.14
20710;BME280;10516;51.518;9.864;2023-07-29T04:36:14;97987.81;;;18.16;92.81
20710;BME280;10516;51.518;9.864;2023-07-29T04:38:39;97983.34;;;18.28;92.47
20710;BME280;10516;51.518;9.864;2023-07-29T04:41:04;97987.97;;;18.28;92.57
20710;BME280;10516;51.518;9.864;2023-07-29T04:43:32;97998.78;;;18.28;92.50
20710;BME280;10516;51.518;9.864;2023-07-29T04:45:58;97999.09;;;18.26;92.95
20710;BME280;10516;51.518;9.864;2023-07-29T04:48:23;97988.28;;;18.26;92.67
20710;BME280;10516;51.518;9.864;2023-07-29T04:50:48;97986.84;;;18.29;92.60
20710;BME280;10516;51.518;9.864;2023-07-29T04:53:14;97994.47;;;18.35;92.41
20710;BME280;10516;51.518;9.864;2023-07-29T04:55:41;97984.63;;;18.31;92.85
20710;BME280;10516;51.518;9.864;2023-07-29T04:58:07;97987.53;;;18.17;92.94
20710;BME280;10516;51.518;9.864;2023-07-29T05:00:33;97996.38;;;18.26;93.02
20710;BME280;10516;51.518;9.864;2023-07-29T05:02:59;97997.19;;;18.27;92.99
20710;BME280;10516;51.518;9.864;2023-07-29T05:05:24;97995.16;;;18.24;93.04
20710;BME280;10516;51.518;9.864;2023-07-29T05:07:49;97997.03;;;18.23;93.20
20710;BME280;10516;51.518;9.864;2023-07-29T05:10:15;97981.44;;;18.29;92.83
20710;BME280;10516;51.518;9.864;2023-07-29T05:12:40;97981.16;;;18.30;93.05
20710;BME280;10516;51.518;9.864;2023-07-29T05:15:06;97981.44;;;18.37;92.57
20710;BME280;10516;51.518;9.864;2023-07-29T05:17:31;97980.66;;;18.20;93.73
20710;BME280;10516;51.518;9.864;2023-07-29T05:19:57;97985.09;;;18.33;92.99
20710;BME280;10516;51.518;9.864;2023-07-29T05:22:22;97980.81;;;18.32;93.43
20710;BME280;10516;51.518;9.864;2023-07-29T05:24:47;97983.03;;;18.38;92.54
20710;BME280;10516;51.518;9.864;2023-07-29T05:27:13;97978.59;;;18.34;93.07
20710;BME280;10516;51.518;9.864;2023-07-29T05:29:38;97975.56;;;18.27;94.01
20710;BME280;10516;51.518;9.864;2023-07-29T05:32:04;97966.06;;;18.21;94.27
20710;BME280;10516;51.518;9.864;2023-07-29T05:34:29;97975.56;;;18.35;93.13
20710;BME280;10516;51.518;9.864;2023-07-29T05:36:54;97963.66;;;18.36;92.99
20710;BME280;10516;51.518;9.864;2023-07-29T05:39:20;97970.63;;;18.37;93.31
20710;BME280;10516;51.518;9.864;2023-07-29T05:41:45;97976.22;;;18.49;92.84
20710;BME280;10516;51.518;9.864;2023-07-29T05:44:11;97975.88;;;18.42;93.25
20710;BME280;10516;51.518;9.864;2023-07-29T05:46:37;97972.56;;;18.45;93.00
20710;BME280;10516;51.518;9.864;2023-07-29T05:49:02;97967.31;;;18.40;93.38
20710;BME280;10516;51.518;9.864;2023-07-29T05:51:28;97966.03;;;18.46;93.14
20710;BME280;10516;51.518;9.864;2023-07-29T05:53:53;97976.84;;;18.38;93.87
20710;BME280;10516;51.518;9.864;2023-07-29T05:56:18;97972.88;;;18.52;93.30
20710;BME280;10516;51.518;9.864;2023-07-29T05:58:44;97975.41;;;18.40;94.02
20710;BME280;10516;51.518;9.864;2023-07-29T06:01:09;97972.72;;;18.49;93.48
20710;BME280;10516;51.518;9.864;2023-07-29T06:03:34;97967.94;;;18.46;93.29
20710;BME280;10516;51.518;9.864;2023-07-29T06:06:00;97966.69;;;18.52;92.94
20710;BME280;10516;51.518;9.864;2023-07-29T06:08:25;97964.16;;;18.47;93.37
20710;BME280;10516;51.518;9.864;2023-07-29T06:10:53;97959.19;;;18.57;93.16
20710;BME280;10516;51.518;9.864;2023-07-29T06:13:19;97971.75;;;18.62;92.91
20710;BME280;10516;51.518;9.864;2023-07-29T06:15:44;97974.75;;;18.69;92.78
20710;BME280;10516;51.518;9.864;2023-07-29T06:18:09;97978.25;;;18.61;93.20
20710;BME280;10516;51.518;9.864;2023-07-29T06:20:35;97974.91;;;18.64;93.02
20710;BME280;10516;51.518;9.864;2023-07-29T06:23:00;97975.53;;;18.61;93.44
20710;BME280;10516;51.518;9.864;2023-07-29T06:25:27;97964.09;;;18.64;93.69
20710;BME280;10516;51.518;9.864;2023-07-29T06:27:52;97963.13;;;18.68;93.04
20710;BME280;10516;51.518;9.864;2023-07-29T06:30:17;97975.88;;;18.59;93.92
20710;BME280;10516;51.518;9.864;2023-07-29T06:32:43;97979.69;;;18.67;93.43
20710;BME280;10516;51.518;9.864;2023-07-29T06:35:08;97971.88;;;18.65;92.94
20710;BME280;10516;51.518;9.864;2023-07-29T06:37:33;97972.22;;;18.64;93.66
20710;BME280;10516;51.518;9.864;2023-07-29T06:39:59;97979.19;;;18.74;92.58
20710;BME280;10516;51.518;9.864;2023-07-29T06:42:24;97988.09;;;18.65;93.38
20710;BME280;10516;51.518;9.864;2023-07-29T06:44:50;97977.47;;;18.69;92.94
20710;BME280;10516;51.518;9.864;2023-07-29T06:47:15;97982.03;;;18.77;92.37
20710;BME280;10516;51.518;9.864;2023-07-29T06:49:40;97978.41;;;18.73;93.11
20710;BME280;10516;51.518;9.864;2023-07-29T06:52:06;97975.06;;;18.67;93.03
20710;BME280;10516;51.518;9.864;2023-07-29T06:54:31;97975.22;;;18.71;93.21
20710;BME280;10516;51.518;9.864;2023-07-29T06:56:57;97972.50;;;18.80;94.05
20710;BME280;10516;51.518;9.864;2023-07-29T06:59:22;97968.03;;;18.84;95.28
20710;BME280;10516;51.518;9.864;2023-07-29T07:01:49;97977.84;;;18.97;95.74
20710;BME280;10516;51.518;9.864;2023-07-29T07:04:15;97976.69;;;19.06;94.55
20710;BME280;10516;51.518;9.864;2023-07-29T07:06:40;97965.88;;;19.06;94.17
20710;BME280;10516;51.518;9.864;2023-07-29T07:09:06;97966.59;;;19.24;93.54
20710;BME280;10516;51.518;9.864;2023-07-29T07:11:31;97971.53;;;19.22;93.68
20710;BME280;10516;51.518;9.864;2023-07-29T07:13:56;97968.22;;;19.16;94.13
20710;BME280;10516;51.518;9.864;2023-07-29T07:16:22;97974.59;;;19.12;93.53
20710;BME280;10516;51.518;9.864;2023-07-29T07:18:47;97967.16;;;19.00;94.76
20710;BME280;10516;51.518;9.864;2023-07-29T07:21:13;97971.09;;;19.11;94.51
20710;BME280;10516;51.518;9.864;2023-07-29T07:23:41;97968.84;;;19.22;93.63
20710;BME280;10516;51.518;9.864;2023-07-29T07:26:06;97965.94;;;19.27;93.53
20710;BME280;10516;51.518;9.864;2023-07-29T07:28:32;97974.97;;;19.31;93.13
20710;BME280;10516;51.518;9.864;2023-07-29T07:30:57;97978.81;;;19.30;92.66
20710;BME280;10516;51.518;9.864;2023-07-29T07:33:22;97981.84;;;19.37;92.41
20710;BME280;10516;51.518;9.864;2023-07-29T07:35:48;97984.91;;;19.18;92.49
20710;BME280;10516;51.518;9.864;2023-07-29T07:38:13;97975.53;;;19.16;93.33
20710;BME280;10516;51.518;9.864;2023-07-29T07:40:38;97984.75;;;19.23;93.30
20710;BME280;10516;51.518;9.864;2023-07-29T07:43:04;97983.09;;;19.31;91.98
20710;BME280;10516;51.518;9.864;2023-07-29T07:45:29;97968.16;;;19.25;92.69
20710;BME280;10516;51.518;9.864;2023-07-29T07:47:56;97962.41;;;19.26;93.13
20710;BME280;10516;51.518;9.864;2023-07-29T07:50:21;97975.78;;;19.31;92.89
20710;BME280;10516;51.518;9.864;2023-07-29T07:52:46;97977.38;;;19.32;92.91
20710;BME280;10516;51.518;9.864;2023-07-29T07:55:12;97969.78;;;19.26;93.79
20710;BME280;10516;51.518;9.864;2023-07-29T07:57:37;97969.47;;;19.19;93.75
20710;BME280;10516;51.518;9.864;2023-07-29T08:00:03;97965.28;;;19.30;92.58
20710;BME280;10516;51.518;9.864;2023-07-29T08:02:29;97984.34;;;19.33;92.64
20710;BME280;10516;51.518;9.864;2023-07-29T08:04:55;97981.22;;;19.23;92.58
20710;BME280;10516;51.518;9.864;2023-07-29T08:07:21;97987.56;;;19.27;92.45
20710;BME280;10516;51.518;9.864;2023-07-29T08:09:47;97986.94;;;19.30;92.15
20710;BME280;10516;51.518;9.864;2023-07-29T08:12:12;97983.13;;;19.22;92.73
20710;BME280;10516;51.518;9.864;2023-07-29T08:14:38;97976.75;;;19.27;92.49
20710;BME280;10516;51.518;9.864;2023-07-29T08:17:03;97985.03;;;19.30;91.85
20710;BME280;10516;51.518;9.864;2023-07-29T08:19:29;97977.56;;;19.27;91.49
20710;BME280;10516;51.518;9.864;2023-07-29T08:21:54;97983.44;;;19.29;91.99
20710;BME280;10516;51.518;9.864;2023-07-29T08:24:20;97971.16;;;19.32;92.60
20710;BME280;10516;51.518;9.864;2023-07-29T08:26:45;97970.38;;;19.31;92.45
20710;BME280;10516;51.518;9.864;2023-07-29T08:29:11;97974.84;;;19.36;91.95
20710;BME280;10516;51.518;9.864;2023-07-29T08:31:37;97972.47;;;19.34;92.38
20710;BME280;10516;51.518;9.864;2023-07-29T08:34:02;97975.47;;;19.33;92.10
20710;BME280;10516;51.518;9.864;2023-07-29T08:36:28;97967.97;;;19.38;92.01
20710;BME280;10516;51.518;9.864;2023-07-29T08:38:53;97962.06;;;19.45;92.17
20710;BME280;10516;51.518;9.864;2023-07-29T08:43:52;97968.38;;;19.49;91.65
20710;BME280;10516;51.518;9.864;2023-07-29T08:46:21;97969.78;;;19.55;91.66
20710;BME280;10516;51.518;9.864;2023-07-29T08:48:47;97969.47;;;19.57;92.37
20710;BME280;10516;51.518;9.864;2023-07-29T08:51:12;97969.59;;;19.60;91.81
20710;BME280;10516;51.518;9.864;2023-07-29T08:53:39;97965.44;;;19.63;90.89
20710;BME280;10516;51.518;9.864;2023-07-29T08:56:05;97973.84;;;19.70;90.80
20710;BME280;10516;51.518;9.864;2023-07-29T08:58:31;97969.09;;;19.67;90.89
20710;BME280;10516;51.518;9.864;2023-07-29T09:00:57;97967.50;;;19.66;91.06
20710;BME280;10516;51.518;9.864;2023-07-29T09:03:22;97972.50;;;19.55;91.02
20710;BME280;10516;51.518;9.864;2023-07-29T09:05:48;97968.22;;;19.54;90.73
20710;BME280;10516;51.518;9.864;2023-07-29T09:08:14;97971.78;;;19.46;90.72
20710;BME280;10516;51.518;9.864;2023-07-29T09:10:40;97971.72;;;19.55;90.69
20710;BME280;10516;51.518;9.864;2023-07-29T09:13:06;97983.66;;;19.54;90.82
20710;BME280;10516;51.518;9.864;2023-07-29T09:15:34;97978.06;;;19.59;91.17
20710;BME280;10516;51.518;9.864;2023-07-29T09:18:09;97976.09;;;19.68;91.12
20710;BME280;10516;51.518;9.864;2023-07-29T09:20:34;97982.91;;;19.74;89.78
20710;BME280;10516;51.518;9.864;2023-07-29T09:23:00;97990.69;;;19.75;89.60
20710;BME280;10516;51.518;9.864;2023-07-29T09:25:26;97990.34;;;19.77;89.60
20710;BME280;10516;51.518;9.864;2023-07-29T09:27:58;97983.53;;;19.71;89.93
20710;BME280;10516;51.518;9.864;2023-07-29T09:30:24;97981.44;;;19.76;88.90
20710;BME280;10516;51.518;9.864;2023-07-29T09:32:55;97975.75;;;19.90;89.20
20710;BME280;10516;51.518;9.864;2023-07-29T09:35:20;97972.53;;;19.76;88.31
20710;BME280;10516;51.518;9.864;2023-07-29T09:37:45;97981.50;;;19.88;88.54
20710;BME280;10516;51.518;9.864;2023-07-29T09:40:14;97977.91;;;20.05;88.04
20710;BME280;10516;51.518;9.864;2023-07-29T09:42:47;97984.78;;;20.23;88.30
20710;BME280;10516;51.518;9.864;2023-07-29T09:45:19;97976.34;;;20.16;87.54
20710;BME280;10516;51.518;9.864;2023-07-29T09:47:46;97977.09;;;20.25;86.79
20710;BME280;10516;51.518;9.864;2023-07-29T09:50:11;97969.66;;;20.22;86.94
20710;BME280;10516;51.518;9.864;2023-07-29T09:52:37;97982.97;;;20.27;87.45
20710;BME280;10516;51.518;9.864;2023-07-29T09:55:02;97966.59;;;20.44;87.72
20710;BME280;10516;51.518;9.864;2023-07-29T09:57:28;97978.81;;;20.62;87.04
20710;BME280;10516;51.518;9.864;2023-07-29T09:59:54;97974.66;;;20.65;83.78
20710;BME280;10516;51.518;9.864;2023-07-29T10:02:20;97956.53;;;20.89;84.20
20710;BME280;10516;51.518;9.864;2023-07-29T10:04:46;97954.94;;;21.01;83.39
20710;BME280;10516;51.518;9.864;2023-07-29T10:07:12;97958.38;;;21.22;83.83
20710;BME280;10516;51.518;9.864;2023-07-29T10:09:39;97958.94;;;21.39;81.05
20710;BME280;10516;51.518;9.864;2023-07-29T10:12:09;97967.66;;;21.21;80.86
20710;BME280;10516;51.518;9.864;2023-07-29T10:14:38;97969.03;;;21.27;80.27
20710;BME280;10516;51.518;9.864;2023-07-29T10:17:04;97971.06;;;21.18;80.43
20710;BME280;10516;51.518;9.864;2023-07-29T10:19:30;97965.03;;;21.12;80.74
20710;BME280;10516;51.518;9.864;2023-07-29T10:21:58;97968.78;;;21.08;80.83
20710;BME280;10516;51.518;9.864;2023-07-29T10:24:29;97959.50;;;21.09;82.01
20710;BME280;10516;51.518;9.864;2023-07-29T10:27:00;97960.63;;;21.44;80.41
20710;BME280;10516;51.518;9.864;2023-07-29T10:29:30;97955.69;;;21.34;82.13
20710;BME280;10516;51.518;9.864;2023-07-29T10:32:01;97954.06;;;21.57;79.76
20710;BME280;10516;51.518;9.864;2023-07-29T10:34:29;97949.69;;;21.40;78.13
20710;BME280;10516;51.518;9.864;2023-07-29T10:36:55;97940.34;;;21.65;76.92
20710;BME280;10516;51.518;9.864;2023-07-29T10:39:21;97948.59;;;21.69;76.78
20710;BME280;10516;51.518;9.864;2023-07-29T10:42:00;97948.16;;;21.79;75.70
20710;BME280;10516;51.518;9.864;2023-07-29T10:47:19;97949.72;;;21.92;75.49
20710;BME280;10516;51.518;9.864;2023-07-29T10:49:50;97959.91;;;21.71;75.84
20710;BME280;10516;51.518;9.864;2023-07-29T10:55:02;97955.72;;;21.74;76.36
20710;BME280;10516;51.518;9.864;2023-07-29T10:57:32;97956.06;;;21.84;76.14
20710;BME280;10516;51.518;9.864;2023-07-29T10:59:59;97948.06;;;22.15;77.88
20710;BME280;10516;51.518;9.864;2023-07-29T11:02:33;97944.13;;;22.41;75.51
20710;BME280;10516;51.518;9.864;2023-07-29T11:05:08;97951.19;;;22.29;74.80
20710;BME280;10516;51.518;9.864;2023-07-29T11:07:44;97956.78;;;22.21;74.95
20710;BME280;10516;51.518;9.864;2023-07-29T11:10:11;97952.09;;;22.21;74.27
20710;BME280;10516;51.518;9.864;2023-07-29T11:12:47;97945.59;;;22.38;73.76
20710;BME280;10516;51.518;9.864;2023-07-29T11:15:26;97948.09;;;22.59;72.84
20710;BME280;10516;51.518;9.864;2023-07-29T11:17:57;97949.34;;;22.61;74.97
20710;BME280;10516;51.518;9.864;2023-07-29T11:20:31;97953.97;;;22.45;73.53
20710;BME280;10516;51.518;9.864;2023-07-29T11:22:58;97944.47;;;22.55;72.84
20710;BME280;10516;51.518;9.864;2023-07-29T11:25:25;97946.75;;;22.53;72.51
20710;BME280;10516;51.518;9.864;2023-07-29T11:27:52;97952.78;;;22.74;71.20
20710;BME280;10516;51.518;9.864;2023-07-29T11:30:18;97953.06;;;22.69;71.33
20710;BME280;10516;51.518;9.864;2023-07-29T11:32:45;97943.41;;;22.87;69.86
20710;BME280;10516;51.518;9.864;2023-07-29T11:35:18;97947.19;;;23.13;68.01
20710;BME280;10516;51.518;9.864;2023-07-29T11:37:45;97947.28;;;23.33;67.96
20710;BME280;10516;51.518;9.864;2023-07-29T11:40:16;97948.25;;;23.40;67.92
20710;BME280;10516;51.518;9.864;2023-07-29T11:42:42;97957.94;;;23.38;67.63
20710;BME280;10516;51.518;9.864;2023-07-29T11:45:08;97956.16;;;23.45;66.67
20710;BME280;10516;51.518;9.864;2023-07-29T11:47:35;97974.41;;;23.60;67.26
20710;BME280;10516;51.518;9.864;2023-07-29T11:50:03;97967.91;;;23.65;66.19
20710;BME280;10516;51.518;9.864;2023-07-29T11:52:28;97959.41;;;23.85;65.04
20710;BME280;10516;51.518;9.864;2023-07-29T11:54:54;97969.66;;;24.08;65.64
20710;BME280;10516;51.518;9.864;2023-07-29T11:57:20;97965.78;;;24.09;64.46
20710;BME280;10516;51.518;9.864;2023-07-29T11:59:46;97964.94;;;23.89;65.00
20710;BME280;10516;51.518;9.864;2023-07-29T12:02:13;97962.13;;;23.85;64.20
20710;BME280;10516;51.518;9.864;2023-07-29T12:04:40;97964.78;;;23.82;64.04
20710;BME280;10516;51.518;9.864;2023-07-29T12:07:10;97960.13;;;23.82;63.97
20710;BME280;10516;51.518;9.864;2023-07-29T12:09:37;97957.88;;;23.69;63.37
20710;BME280;10516;51.518;9.864;2023-07-29T12:12:05;97942.03;;;23.74;64.75
20710;BME280;10516;51.518;9.864;2023-07-29T12:14:32;97948.47;;;23.66;63.95
20710;BME280;10516;51.518;9.864;2023-07-29T12:17:00;97944.31;;;23.72;62.89
20710;BME280;10516;51.518;9.864;2023-07-29T12:19:34;97947.31;;;24.02;62.54
20710;BME280;10516;51.518;9.864;2023-07-29T12:22:04;97957.50;;;23.36;63.50
20710;BME280;10516;51.518;9.864;2023-07-29T12:24:30;97942.72;;;23.52;61.59
20710;BME280;10516;51.518;9.864;2023-07-29T12:26:56;97949.13;;;23.44;62.96
20710;BME280;10516;51.518;9.864;2023-07-29T12:29:22;97951.06;;;23.28;61.75
20710;BME280;10516;51.518;9.864;2023-07-29T12:31:48;97956.25;;;23.49;61.39
20710;BME280;10516;51.518;9.864;2023-07-29T12:34:20;97956.41;;;23.91;61.94
20710;BME280;10516;51.518;9.864;2023-07-29T12:36:48;97951.66;;;23.88;62.85
20710;BME280;10516;51.518;9.864;2023-07-29T12:39:22;97949.94;;;23.79;61.48
20710;BME280;10516;51.518;9.864;2023-07-29T12:41:48;97968.50;;;24.09;61.51
20710;BME280;10516;51.518;9.864;2023-07-29T12:44:14;97968.50;;;24.09;59.82
20710;BME280;10516;51.518;9.864;2023-07-29T12:46:39;97986.63;;;23.66;60.54
20710;BME280;10516;51.518;9.864;2023-07-29T12:49:05;97975.41;;;23.87;60.09
20710;BME280;10516;51.518;9.864;2023-07-29T12:51:31;97981.91;;;23.48;60.82
20710;BME280;10516;51.518;9.864;2023-07-29T12:53:57;97971.72;;;23.45;61.59
20710;BME280;10516;51.518;9.864;2023-07-29T12:56:22;97957.69;;;23.77;60.42
20710;BME280;10516;51.518;9.864;2023-07-29T12:58:47;97964.44;;;24.03;60.15
20710;BME280;10516;51.518;9.864;2023-07-29T13:01:14;97971.81;;;24.18;59.58
20710;BME280;10516;51.518;9.864;2023-07-29T13:03:43;97972.13;;;23.97;59.73
20710;BME280;10516;51.518;9.864;2023-07-29T13:06:08;97967.78;;;24.50;58.44
20710;BME280;10516;51.518;9.864;2023-07-29T13:08:33;97978.66;;;23.93;58.07